Home > Products > Valid Products > TAF

000
FTUS45 KTWC 231700
TAFTUS
TAF
KTUS 231720Z 2318/2418 14007KT P6SM SKC
     FM232100 34007KT P6SM SKC
     FM240400 14005KT P6SM SKC
     FM241100 14011KT P6SM SKC
     FM241600 13005KT P6SM SKC=



000
FTUS45 KTWC 231700
TAFOLS
TAF
KOLS 231720Z 2318/2418 VRB04KT P6SM SKC
     FM232100 30006KT P6SM SKC
     FM240200 06004KT P6SM SKC
     FM241700 18005KT P6SM SKC=



000
FTUS45 KTWC 231700
TAFDUG
TAF
KDUG 231720Z 2318/2418 VRB05KT P6SM SKC
     FM232100 34007KT P6SM FEW090
     FM240200 04005KT P6SM SKC=



000
FTUS45 KTWC 231100
TAFOLS
TAF
KOLS 231129Z 2312/2412 VRB04KT P6SM SKC
     FM232000 29006KT P6SM SKC
     FM240400 VRB03KT P6SM SKC=



000
FTUS45 KTWC 231100
TAFTUS
TAF
KTUS 231129Z 2312/2412 14008KT P6SM SKC
     FM232100 34007KT P6SM SKC
     FM240400 15006KT P6SM SKC=



000
FTUS45 KTWC 231100
TAFDUG
TAF
KDUG 231129Z 2312/2412 VRB04KT P6SM SKC
     FM231800 16006KT P6SM SKC
     FM240300 VRB04KT P6SM SKC=



000
FTUS45 KTWC 230500
TAFOLS
TAF
KOLS 230520Z 2306/2406 VRB04KT P6SM SKC
     FM232200 28005KT P6SM SKC
     FM240300 VRB03KT P6SM SKC=



000
FTUS45 KTWC 230500
TAFDUG
TAF
KDUG 230520Z 2306/2406 07005KT P6SM SKC
     FM232000 17005KT P6SM SKC
     FM240300 04004KT P6SM SKC=



000
FTUS45 KTWC 230500
TAFTUS
TAF
KTUS 230520Z 2306/2406 14008KT P6SM SKC
     FM232200 35007KT P6SM SKC
     FM240300 23005KT P6SM SKC=



000
FTUS45 KTWC 222300
TAFOLS
TAF
KOLS 222320Z 2300/2324 30005KT P6SM SKC
     FM230200 VRB04KT P6SM SKC
     FM232200 26005KT P6SM SKC=



000
FTUS45 KTWC 222300
TAFDUG
TAF
KDUG 222320Z 2300/2324 07005KT P6SM SKC
     FM232000 17005KT P6SM SKC=



000
FTUS45 KTWC 222300
TAFTUS
TAF
KTUS 222320Z 2300/2324 34005KT P6SM SKC
     FM230500 14008KT P6SM SKC
     FM232200 35007KT P6SM SKC=



000
FTUS45 KTWC 221700
TAFOLS
TAF
KOLS 221737Z 2218/2318 VRB03KT P6SM SKC
     FM222000 30007KT P6SM FEW090
     FM230200 VRB03KT P6SM SKC=



000
FTUS45 KTWC 221700
TAFTUS
TAF
KTUS 221737Z 2218/2318 19004KT P6SM SKC
     FM222100 33007KT P6SM FEW100
     FM230200 23005KT P6SM SKC
     FM230800 14008KT P6SM SKC=



000
FTUS45 KTWC 221700
TAFDUG
TAF
KDUG 221737Z 2218/2318 28006KT P6SM FEW080
     FM222200 35008KT P6SM SCT080
     FM230200 04005KT P6SM FEW080
     FM230700 VRB04KT P6SM SKC=



000
FTUS45 KTWC 221700
TAFOLS
TAF
KOLS 221737Z 2218/2318 VRB03KT P6SM SKC
     FM222000 30007KT P6SM FEW090
     FM230200 VRB03KT P6SM SKC=



000
FTUS45 KTWC 221700
TAFDUG
TAF
KDUG 221737Z 2218/2318 28006KT P6SM FEW080
     FM222200 35008KT P6SM SCT080
     FM230200 04005KT P6SM FEW080
     FM230700 VRB04KT P6SM SKC=



000
FTUS45 KTWC 221700
TAFTUS
TAF
KTUS 221737Z 2218/2318 19004KT P6SM SKC
     FM222100 33007KT P6SM FEW100
     FM230200 23005KT P6SM SKC
     FM230800 14008KT P6SM SKC=



000
FTUS45 KTWC 221100
TAFTUS
TAF
KTUS 221128Z 2212/2312 14008KT P6SM SKC
     FM222100 35007KT P6SM FEW100
     FM230200 20005KT P6SM SKC
     FM230700 14007KT P6SM SKC=



000
FTUS45 KTWC 221100
TAFOLS
TAF
KOLS 221128Z 2212/2312 VRB03KT P6SM SKC
     FM221800 32007KT P6SM FEW090
     FM230300 VRB03KT P6SM SKC=



000
FTUS45 KTWC 221100
TAFDUG
TAF
KDUG 221128Z 2212/2312 02007KT P6SM FEW250
     FM221800 08006KT P6SM FEW080
     FM230300 01007KT P6SM SKC
     FM231000 VRB03KT P6SM SKC=



000
FTUS45 KTWC 220500
TAFTUS
TAF
KTUS 220520Z 2206/2306 14008KT P6SM FEW250
     FM222100 35007KT P6SM FEW100
     FM230400 20005KT P6SM SKC=



000
FTUS45 KTWC 220500
TAFDUG
TAF
KDUG 220520Z 2206/2306 VRB04KT P6SM FEW250
     FM221800 10006KT P6SM FEW090
     FM230300 04005KT P6SM SKC=



000
FTUS45 KTWC 220500
TAFOLS
TAF
KOLS 220520Z 2206/2306 VRB03KT P6SM FEW250
     FM221800 30005KT P6SM FEW090
     FM230300 VRB04KT P6SM SKC=



000
FTUS45 KTWC 220500
TAFDUG
TAF
KDUG 220520Z 2206/2306 VRB04KT P6SM FEW250
     FM221800 10006KT P6SM FEW090
     FM230300 04005KT P6SM SKC=



000
FTUS45 KTWC 220500
TAFOLS
TAF
KOLS 220520Z 2206/2306 VRB03KT P6SM FEW250
     FM221800 30005KT P6SM FEW090
     FM230300 VRB04KT P6SM SKC=



000
FTUS45 KTWC 220500
TAFTUS
TAF
KTUS 220520Z 2206/2306 14008KT P6SM FEW250
     FM222100 35007KT P6SM FEW100
     FM230400 20005KT P6SM SKC=



000
FTUS45 KTWC 212300
TAFDUG
TAF
KDUG 212323Z 2200/2224 25005KT P6SM FEW060
     FM220200 VRB04KT P6SM FEW250
     FM221800 10006KT P6SM FEW090=



000
FTUS45 KTWC 212300
TAFOLS
TAF
KOLS 212323Z 2200/2224 31004KT P6SM FEW080 SCT250
     FM220400 VRB03KT P6SM FEW250
     FM221800 28005KT P6SM FEW090=



000
FTUS45 KTWC 212300
TAFTUS
TAF
KTUS 212323Z 2200/2224 35005KT P6SM SCT250
     FM220500 14008KT P6SM FEW250
     FM222100 04007KT P6SM FEW100=



000
FTUS45 KTWC 211700
TAFTUS
TAF
KTUS 211739Z 2118/2218 12011KT P6SM FEW090
     FM212100 34007KT P6SM SCT090 SCT250
     FM220200 22005KT P6SM FEW250
     FM220800 13008KT P6SM SKC=



000
FTUS45 KTWC 211700
TAFOLS
TAF
KOLS 211739Z 2118/2218 VRB03KT P6SM FEW080
     FM212100 33006KT P6SM SCT080 SCT250
     FM220200 06004KT P6SM FEW250
     FM220500 VRB03KT P6SM SKC=



000
FTUS45 KTWC 211700
TAFDUG
TAF
KDUG 211739Z 2118/2218 33006KT P6SM FEW060
     FM212100 10007KT P6SM SCT060 SCT250
     FM220200 06005KT P6SM SCT250
     FM221000 VRB04KT P6SM SKC=



000
FTUS45 KTWC 211100
TAFOLS
TAF
KOLS 211120Z 2112/2212 VRB03KT P6SM SKC
     FM212000 33006KT P6SM FEW080 SCT250
     FM220300 08005KT P6SM SKC
     FM220700 VRB03KT P6SM SKC=



000
FTUS45 KTWC 211100
TAFOLS
TAF
KOLS 211120Z 2112/2212 VRB03KT P6SM SKC
     FM212000 33006KT P6SM FEW080 SCT250
     FM220300 08005KT P6SM SKC
     FM220700 VRB03KT P6SM SKC=



000
FTUS45 KTWC 211100
TAFTUS
TAF
KTUS 211120Z 2112/2212 13007KT P6SM SKC
     FM212000 35006KT P6SM FEW090 SCT250
     FM220200 22005KT P6SM SKC
     FM220700 14007KT P6SM SKC=



000
FTUS45 KTWC 211100
TAFDUG
TAF
KDUG 211120Z 2112/2212 33006KT P6SM SKC
     FM211900 08007KT P6SM SCT060 SCT200
     FM220200 01008KT P6SM SKC
     FM221000 VRB03KT P6SM SKC=



000
FTUS45 KTWC 211100
TAFTUS
TAF
KTUS 211120Z 2112/2212 13007KT P6SM SKC
     FM212000 35006KT P6SM FEW090 SCT250
     FM220200 22005KT P6SM SKC
     FM220700 14007KT P6SM SKC=



000
FTUS45 KTWC 211100
TAFDUG
TAF
KDUG 211120Z 2112/2212 33006KT P6SM SKC
     FM211900 08007KT P6SM SCT060 SCT200
     FM220200 01008KT P6SM SKC
     FM221000 VRB03KT P6SM SKC=



000
FTUS45 KTWC 211100
TAFOLS
TAF
KOLS 211120Z 2112/2212 VRB03KT P6SM SKC
     FM212000 33006KT P6SM FEW080 SCT250
     FM220300 08005KT P6SM SKC
     FM220700 VRB03KT P6SM SKC=



000
FTUS45 KTWC 210500
TAFOLS
TAF
KOLS 210520Z 2106/2206 05005KT P6SM SKC
     FM212000 26006KT P6SM FEW100
     FM220300 07003KT P6SM SKC=



000
FTUS45 KTWC 210500
TAFDUG
TAF
KDUG 210520Z 2106/2206 05006KT P6SM FEW100=



000
FTUS45 KTWC 210500
TAFOLS
TAF
KOLS 210520Z 2106/2206 05005KT P6SM SKC
     FM212000 26006KT P6SM FEW100
     FM220300 07003KT P6SM SKC=



000
FTUS45 KTWC 210500
TAFTUS
TAF
KTUS 210520Z 2106/2206 12007KT P6SM SKC
     FM211900 VRB05KT P6SM FEW100
     FM220300 35005KT P6SM SKC=



000
FTUS45 KTWC 210100 AAA
TAFDUG
TAF AMD
KDUG 210123Z 2101/2124 11013KT P6SM FEW070 BKN100
     FM210300 05007KT P6SM FEW070 SCT100 BKN200
     FM211100 VRB03KT P6SM FEW100=



000
FTUS45 KTWC 202300
TAFOLS
TAF
KOLS 202337Z 2100/2124 02010KT P6SM VCSH BKN100
     FM210200 05005KT P6SM SCT100
     FM212000 26006KT P6SM FEW100=



000
FTUS45 KTWC 202300
TAFTUS
TAF
KTUS 202337Z 2100/2124 35004KT P6SM SCT090
     FM210500 14008KT P6SM SKC=



000
FTUS45 KTWC 202300
TAFOLS
TAF
KOLS 202337Z 2100/2124 02010KT P6SM VCSH BKN100
     FM210200 05005KT P6SM SCT100
     FM212000 26006KT P6SM FEW100=



000
FTUS45 KTWC 202300
TAFDUG
TAF
KDUG 202337Z 2100/2124 11013KT P6SM VCSH SCT070 BKN100
     FM210200 05007KT P6SM FEW070 SCT100 BKN200
     FM211100 VRB03KT P6SM FEW100=



    US Dept of Commerce
    National Oceanic and Atmospheric Administration
    National Weather Service
    1325 East West Highway
    Silver Spring, MD 20910
    Page Author: NWS Internet Services Team
Disclaimer
Information Quality
Credits
Glossary
Privacy Policy
Freedom of Information Act (FOIA)
About Us
Career Opportunities